Time;durP1;ratioP1;P1;durP2;ratioP2;P2;SDS_P1;SDS_P2;PMS_P1;PMS_P2;Temp;Humidity;BMP_temperature;BMP_pressure;BME280_temperature;BME280_humidity;BME280_pressure;Samples;Min_cycle;Max_cycle;Signal;HPM_P1;HPM_P2
2021/10/14 00:00:36;;;;;;;6.18;3.28;;;10.40;99.90;;;;;;5022973;28;20025;-76
2021/10/14 00:03:03;;;;;;;6.00;3.92;;;10.40;99.90;;;;;;5024066;28;20436;-76
2021/10/14 00:05:29;;;;;;;7.28;3.42;;;10.40;99.90;;;;;;5019055;28;20057;-76
2021/10/14 00:07:54;;;;;;;4.30;2.85;;;10.50;99.90;;;;;;5017107;28;20510;-76
2021/10/14 00:10:19;;;;;;;4.50;3.13;;;10.50;99.90;;;;;;5018554;28;20041;-76
2021/10/14 00:12:45;;;;;;;3.75;3.28;;;10.50;99.90;;;;;;5028712;28;20086;-76
2021/10/14 00:15:10;;;;;;;7.35;3.10;;;10.50;99.90;;;;;;5021514;28;20034;-76
2021/10/14 00:17:36;;;;;;;4.25;3.33;;;10.50;99.90;;;;;;5023037;28;20029;-75
2021/10/14 00:20:03;;;;;;;4.90;3.33;;;10.50;99.90;;;;;;5019507;28;20474;-78
2021/10/14 00:22:29;;;;;;;7.93;3.80;;;10.50;99.90;;;;;;5024723;28;20037;-75
2021/10/14 00:24:55;;;;;;;7.45;3.45;;;10.50;99.90;;;;;;5021080;28;20552;-75
2021/10/14 00:27:20;;;;;;;7.32;4.03;;;10.50;99.90;;;;;;5020235;28;20074;-75
2021/10/14 00:29:46;;;;;;;6.32;3.85;;;10.50;99.90;;;;;;5022106;28;20072;-76
2021/10/14 00:32:11;;;;;;;7.97;4.28;;;10.50;99.90;;;;;;5038009;28;20054;-76
2021/10/14 00:34:37;;;;;;;6.55;4.00;;;10.50;99.90;;;;;;5029875;28;20071;-77
2021/10/14 00:37:02;;;;;;;7.03;3.40;;;10.50;99.90;;;;;;5017904;28;20120;-78
2021/10/14 00:39:28;;;;;;;5.57;3.03;;;10.50;99.90;;;;;;5017014;28;20509;-80
2021/10/14 00:41:53;;;;;;;8.07;3.47;;;10.50;99.90;;;;;;5021535;28;20030;-78
2021/10/14 00:44:19;;;;;;;8.10;3.33;;;10.50;99.90;;;;;;5025687;28;20041;-78
2021/10/14 00:46:52;;;;;;;8.45;4.10;;;10.50;99.90;;;;;;5015067;28;20041;-78
2021/10/14 00:49:18;;;;;;;6.85;3.95;;;10.50;99.90;;;;;;5024754;28;20033;-77
2021/10/14 00:51:43;;;;;;;6.80;4.68;;;10.50;99.90;;;;;;5017133;28;20506;-79
2021/10/14 00:54:10;;;;;;;5.82;3.80;;;10.50;99.90;;;;;;5024689;28;20065;-79
2021/10/14 00:56:35;;;;;;;4.43;3.38;;;10.50;99.90;;;;;;5026223;28;20072;-77
2021/10/14 00:59:02;;;;;;;5.63;3.28;;;10.50;99.90;;;;;;5026102;28;20034;-76
2021/10/14 01:01:28;;;;;;;7.38;4.63;;;10.50;99.90;;;;;;5018479;28;20058;-78
2021/10/14 01:03:53;;;;;;;9.45;3.97;;;10.50;99.90;;;;;;5023245;28;20087;-76
2021/10/14 01:06:19;;;;;;;7.60;4.40;;;10.50;99.90;;;;;;5020444;28;20494;-76
2021/10/14 01:08:45;;;;;;;6.40;4.45;;;10.50;99.90;;;;;;5025160;28;20083;-76
2021/10/14 01:11:11;;;;;;;8.02;4.20;;;10.50;99.90;;;;;;5022200;28;20034;-78
2021/10/14 01:13:37;;;;;;;8.10;4.72;;;10.50;99.90;;;;;;5017129;28;20101;-77
2021/10/14 01:16:06;;;;;;;5.13;3.92;;;10.60;99.90;;;;;;5022484;28;20073;-76
2021/10/14 01:18:31;;;;;;;6.15;4.10;;;10.50;99.90;;;;;;5032533;28;20029;-77
2021/10/14 01:20:57;;;;;;;9.02;4.55;;;10.50;99.90;;;;;;5023322;28;20355;-78
2021/10/14 01:23:22;;;;;;;7.63;4.82;;;10.60;99.90;;;;;;5019984;28;20535;-77
2021/10/14 01:25:48;;;;;;;7.38;4.57;;;10.50;99.90;;;;;;5024816;28;20117;-78
2021/10/14 01:28:15;;;;;;;6.95;4.35;;;10.50;99.90;;;;;;5015935;28;20495;-79
2021/10/14 01:30:41;;;;;;;9.25;5.25;;;10.50;99.90;;;;;;5012509;28;20458;-78
2021/10/14 01:33:07;;;;;;;8.07;5.38;;;10.40;99.90;;;;;;5018113;28;20160;-78
2021/10/14 01:35:33;;;;;;;9.43;4.60;;;10.40;99.90;;;;;;5032518;28;20537;-76
2021/10/14 01:37:58;;;;;;;11.00;5.72;;;10.40;99.90;;;;;;5021034;28;20101;-75
2021/10/14 01:40:24;;;;;;;6.25;4.88;;;10.50;99.90;;;;;;5014805;28;20109;-76
2021/10/14 01:42:49;;;;;;;10.88;5.72;;;10.50;99.90;;;;;;5010701;28;20482;-78
2021/10/14 01:45:15;;;;;;;10.32;5.57;;;10.50;99.90;;;;;;5025118;28;20060;-76
2021/10/14 01:47:40;;;;;;;8.15;5.80;;;10.50;99.90;;;;;;5021944;28;20389;-77
2021/10/14 01:50:06;;;;;;;7.55;4.95;;;10.50;99.90;;;;;;5025131;28;20044;-77
2021/10/14 01:52:32;;;;;;;8.95;5.72;;;10.50;99.90;;;;;;5020839;28;20100;-79
2021/10/14 01:54:58;;;;;;;9.30;5.50;;;10.50;99.90;;;;;;5015454;28;20565;-78
2021/10/14 01:57:23;;;;;;;10.00;6.25;;;10.60;99.90;;;;;;5020588;28;20096;-77
2021/10/14 01:59:49;;;;;;;15.05;6.47;;;10.50;99.90;;;;;;5017872;28;20022;-79
2021/10/14 02:02:14;;;;;;;7.15;5.40;;;10.60;99.90;;;;;;5018564;28;20041;-77
2021/10/14 02:04:40;;;;;;;10.20;6.00;;;10.50;99.90;;;;;;5026643;28;20033;-76
2021/10/14 02:07:05;;;;;;;10.75;6.35;;;10.60;99.90;;;;;;5025347;28;20086;-77
2021/10/14 02:09:31;;;;;;;9.65;5.93;;;10.60;99.90;;;;;;5012778;28;20033;-78
2021/10/14 02:11:56;;;;;;;11.70;6.40;;;10.60;99.90;;;;;;5024353;28;20021;-75
2021/10/14 02:14:22;;;;;;;13.77;7.07;;;10.50;99.90;;;;;;5021597;28;20052;-76
2021/10/14 02:16:47;;;;;;;11.63;6.70;;;10.50;99.90;;;;;;5014711;28;20395;-75
2021/10/14 02:19:13;;;;;;;16.55;6.43;;;10.50;99.90;;;;;;5023929;28;20021;-79
2021/10/14 02:21:38;;;;;;;11.00;6.15;;;10.50;99.90;;;;;;5030017;28;20042;-79
2021/10/14 02:24:04;;;;;;;12.70;6.78;;;10.50;99.90;;;;;;5021925;28;20026;-79
2021/10/14 02:26:30;;;;;;;13.48;6.57;;;10.60;99.90;;;;;;5022600;28;20041;-78
2021/10/14 02:28:55;;;;;;;10.80;6.68;;;10.60;99.90;;;;;;5021182;28;20108;-75
2021/10/14 02:31:21;;;;;;;12.20;6.10;;;10.60;99.90;;;;;;5017390;28;20444;-77
2021/10/14 02:33:46;;;;;;;11.93;6.60;;;10.70;99.90;;;;;;5022443;28;20536;-78
2021/10/14 02:36:12;;;;;;;11.23;6.57;;;10.60;99.90;;;;;;5018975;28;20080;-77
2021/10/14 02:38:37;;;;;;;10.75;6.50;;;10.60;99.90;;;;;;5012356;28;20125;-75
2021/10/14 02:41:03;;;;;;;13.82;7.22;;;10.60;99.90;;;;;;5016028;28;20056;-75
2021/10/14 02:43:29;;;;;;;8.00;5.60;;;10.70;99.90;;;;;;5015737;28;20111;-78
2021/10/14 02:45:55;;;;;;;12.23;6.65;;;10.70;99.90;;;;;;5020253;28;20029;-76
2021/10/14 02:48:20;;;;;;;11.82;6.05;;;10.70;99.90;;;;;;5017234;28;20048;-75
2021/10/14 02:50:46;;;;;;;10.32;6.57;;;10.60;99.90;;;;;;5023358;28;20038;-75
2021/10/14 02:53:11;;;;;;;10.98;7.05;;;10.70;99.90;;;;;;5011324;28;20397;-75
2021/10/14 02:55:37;;;;;;;9.57;6.57;;;10.60;99.90;;;;;;5016524;28;20764;-77
2021/10/14 02:58:02;;;;;;;12.27;6.68;;;10.60;99.90;;;;;;5016540;28;20046;-76
2021/10/14 03:00:28;;;;;;;8.38;6.15;;;10.60;99.90;;;;;;5018439;28;20503;-77
2021/10/14 03:02:53;;;;;;;11.68;6.35;;;10.60;99.90;;;;;;5015667;28;20029;-77
2021/10/14 03:05:19;;;;;;;10.75;6.18;;;10.60;99.90;;;;;;5029203;28;20382;-77
2021/10/14 03:07:44;;;;;;;10.80;7.50;;;10.60;99.90;;;;;;5015135;28;20028;-77
2021/10/14 03:10:10;;;;;;;10.20;5.90;;;10.60;99.90;;;;;;5017417;28;20037;-77
2021/10/14 03:12:36;;;;;;;10.77;6.70;;;10.60;99.90;;;;;;5014464;28;20033;-77
2021/10/14 03:15:02;;;;;;;11.65;6.53;;;10.60;99.90;;;;;;5025046;28;20033;-74
2021/10/14 03:17:28;;;;;;;8.88;6.20;;;10.60;99.90;;;;;;5028037;28;20033;-75
2021/10/14 03:19:53;;;;;;;9.23;6.60;;;10.60;99.90;;;;;;5018639;28;20452;-76
2021/10/14 03:22:19;;;;;;;10.93;6.15;;;10.60;99.90;;;;;;5041848;28;20033;-76
2021/10/14 03:24:44;;;;;;;12.00;6.22;;;10.60;99.90;;;;;;5020610;28;20041;-76
2021/10/14 03:27:10;;;;;;;9.98;6.57;;;10.60;99.90;;;;;;5020856;28;20065;-77
2021/10/14 03:29:35;;;;;;;9.75;7.28;;;10.60;99.90;;;;;;5015980;28;20029;-77
2021/10/14 03:32:01;;;;;;;9.13;5.95;;;10.70;99.90;;;;;;5013756;28;20025;-78
2021/10/14 03:34:26;;;;;;;10.88;6.13;;;10.70;99.90;;;;;;5033950;28;20034;-78
2021/10/14 03:36:52;;;;;;;11.43;6.93;;;10.70;99.90;;;;;;5022125;28;20049;-77
2021/10/14 03:39:17;;;;;;;9.30;6.10;;;10.70;99.90;;;;;;5024221;28;20065;-77
2021/10/14 03:41:43;;;;;;;8.70;6.50;;;10.70;99.90;;;;;;5025330;28;20037;-77
2021/10/14 03:44:08;;;;;;;9.27;6.50;;;10.70;99.90;;;;;;5021516;28;20038;-77
2021/10/14 03:46:34;;;;;;;12.98;6.55;;;10.60;99.90;;;;;;5022514;28;20105;-75
2021/10/14 03:48:59;;;;;;;9.07;6.53;;;10.60;99.90;;;;;;5022811;28;20049;-75
2021/10/14 03:51:25;;;;;;;10.60;6.95;;;10.60;99.90;;;;;;5027472;28;20037;-77
2021/10/14 03:53:50;;;;;;;11.27;6.20;;;10.60;99.90;;;;;;5022554;28;20108;-75
2021/10/14 03:56:16;;;;;;;10.18;6.05;;;10.50;99.90;;;;;;5021210;28;20048;-77
2021/10/14 03:58:41;;;;;;;11.00;6.78;;;10.40;99.90;;;;;;5017495;28;20386;-75
2021/10/14 04:01:07;;;;;;;9.13;6.53;;;10.40;99.90;;;;;;5026489;28;20565;-75
2021/10/14 04:03:32;;;;;;;11.30;6.30;;;10.40;99.90;;;;;;5018687;28;20124;-75
2021/10/14 04:05:58;;;;;;;10.13;6.70;;;10.40;99.90;;;;;;5021662;28;20684;-75
2021/10/14 04:08:23;;;;;;;7.68;5.65;;;10.40;99.90;;;;;;5015064;28;20026;-75
2021/10/14 04:10:49;;;;;;;8.80;6.50;;;10.40;99.90;;;;;;5026225;28;20083;-75
2021/10/14 04:13:14;;;;;;;9.50;5.93;;;10.30;99.90;;;;;;5016421;28;20033;-75
2021/10/14 04:15:40;;;;;;;8.90;6.60;;;10.40;99.90;;;;;;5033505;28;20514;-75
2021/10/14 04:18:07;;;;;;;11.40;6.22;;;10.40;99.90;;;;;;5019895;28;20033;-77
2021/10/14 04:20:33;;;;;;;9.60;6.45;;;10.40;99.90;;;;;;5030610;28;20070;-77
2021/10/14 04:22:58;;;;;;;10.02;6.97;;;10.40;99.90;;;;;;5030847;28;20049;-77
2021/10/14 04:25:24;;;;;;;12.68;6.78;;;10.40;99.90;;;;;;5038661;28;20471;-77
2021/10/14 04:27:50;;;;;;;9.18;6.53;;;10.40;99.90;;;;;;5014561;28;20029;-77
2021/10/14 04:30:17;;;;;;;16.00;8.07;;;10.40;99.90;;;;;;5021184;28;20402;-77
2021/10/14 04:32:42;;;;;;;9.93;6.47;;;10.40;99.90;;;;;;5012504;28;20133;-78
2021/10/14 04:35:09;;;;;;;9.93;7.40;;;10.30;99.90;;;;;;5026284;28;20497;-78
2021/10/14 04:37:40;;;;;;;10.55;7.07;;;10.40;99.90;;;;;;5022561;28;20047;-77
2021/10/14 04:40:05;;;;;;;13.00;8.00;;;10.40;99.90;;;;;;5016174;28;20148;-77
2021/10/14 04:42:31;;;;;;;13.10;8.13;;;10.50;99.90;;;;;;5033025;28;20120;-77
2021/10/14 04:44:56;;;;;;;11.90;7.82;;;10.40;99.90;;;;;;5026195;28;20527;-77
2021/10/14 04:47:22;;;;;;;12.80;8.68;;;10.40;99.90;;;;;;5027791;28;20037;-77
2021/10/14 04:49:48;;;;;;;10.30;8.07;;;10.40;99.90;;;;;;5037636;28;20082;-77
2021/10/14 04:52:14;;;;;;;13.30;7.63;;;10.40;99.90;;;;;;5048348;28;20037;-78
2021/10/14 04:54:40;;;;;;;12.77;8.18;;;10.30;99.90;;;;;;5048600;28;20037;-78
2021/10/14 04:57:05;;;;;;;15.20;9.57;;;10.40;99.90;;;;;;5044878;28;20033;-77
2021/10/14 04:59:31;;;;;;;11.95;7.88;;;10.40;99.90;;;;;;5029252;28;20025;-78
2021/10/14 05:01:56;;;;;;;14.07;9.07;;;10.40;99.90;;;;;;5025864;28;20048;-78
2021/10/14 05:04:22;;;;;;;14.73;9.02;;;10.50;99.90;;;;;;5028959;28;20045;-78
2021/10/14 05:06:47;;;;;;;13.80;9.65;;;10.50;99.90;;;;;;5016305;28;20073;-77
2021/10/14 05:09:13;;;;;;;14.57;9.88;;;10.50;99.90;;;;;;5028042;28;20037;-77
2021/10/14 05:11:38;;;;;;;12.80;9.25;;;10.60;99.90;;;;;;5028509;28;20038;-77
2021/10/14 05:14:04;;;;;;;12.13;8.55;;;10.60;99.90;;;;;;5027686;28;20045;-77
2021/10/14 05:16:33;;;;;;;12.85;9.20;;;10.60;99.90;;;;;;5028140;28;20065;-76
2021/10/14 05:19:00;;;;;;;19.80;8.70;;;10.60;99.90;;;;;;5028082;28;20075;-76
2021/10/14 05:21:26;;;;;;;12.75;8.82;;;10.60;99.90;;;;;;5027757;28;20039;-76
2021/10/14 05:23:51;;;;;;;11.30;8.35;;;10.70;99.90;;;;;;5028444;28;20045;-77
2021/10/14 05:26:17;;;;;;;13.98;8.77;;;10.70;99.90;;;;;;5027348;28;20500;-76
2021/10/14 05:28:42;;;;;;;11.57;8.65;;;10.70;99.90;;;;;;5025160;28;20116;-77
2021/10/14 05:31:08;;;;;;;11.10;8.32;;;10.70;99.90;;;;;;5042858;28;20034;-76
2021/10/14 05:33:34;;;;;;;12.68;8.32;;;10.70;99.90;;;;;;5027715;28;20038;-76
2021/10/14 05:36:00;;;;;;;14.15;7.75;;;10.80;99.90;;;;;;5027356;28;20034;-76
2021/10/14 05:38:25;;;;;;;15.65;8.07;;;10.80;99.90;;;;;;5026881;28;20056;-76
2021/10/14 05:40:51;;;;;;;11.68;7.80;;;10.80;99.90;;;;;;5024334;28;20125;-76
2021/10/14 05:43:17;;;;;;;13.80;8.55;;;10.80;99.90;;;;;;5027415;28;20083;-76
2021/10/14 05:45:43;;;;;;;11.20;8.57;;;10.80;99.90;;;;;;5027308;28;20120;-77
2021/10/14 05:48:10;;;;;;;10.57;8.00;;;10.70;99.90;;;;;;5046255;28;20378;-76
2021/10/14 05:50:35;;;;;;;10.40;7.90;;;10.70;99.90;;;;;;5047984;28;20032;-77
2021/10/14 05:53:01;;;;;;;10.85;8.60;;;10.80;99.90;;;;;;5044629;28;20029;-77
2021/10/14 05:55:26;;;;;;;15.70;7.60;;;10.80;99.90;;;;;;5027788;28;20108;-76
2021/10/14 05:57:52;;;;;;;12.07;7.97;;;10.70;99.90;;;;;;5024750;28;20026;-76
2021/10/14 06:00:18;;;;;;;13.32;7.38;;;10.70;99.90;;;;;;5016190;28;20113;-78
2021/10/14 06:02:43;;;;;;;9.70;7.53;;;10.70;99.90;;;;;;5018675;28;20033;-76
2021/10/14 06:05:09;;;;;;;12.93;8.05;;;10.70;99.90;;;;;;5008616;28;20445;-78
2021/10/14 06:07:35;;;;;;;9.27;7.32;;;10.70;99.90;;;;;;5023009;28;20038;-78
2021/10/14 06:10:01;;;;;;;13.05;8.27;;;10.70;99.90;;;;;;5012909;28;20028;-78
2021/10/14 06:12:26;;;;;;;9.88;7.82;;;10.80;99.90;;;;;;5008544;28;20026;-77
2021/10/14 06:14:52;;;;;;;10.85;8.35;;;10.80;99.90;;;;;;5009265;28;20042;-77
2021/10/14 06:17:17;;;;;;;12.00;8.30;;;10.80;99.90;;;;;;5019498;28;20095;-79
2021/10/14 06:19:43;;;;;;;12.63;7.55;;;10.70;99.90;;;;;;5028911;28;20043;-78
2021/10/14 06:22:08;;;;;;;12.13;7.93;;;10.70;99.90;;;;;;5024077;28;20043;-78
2021/10/14 06:24:34;;;;;;;10.43;8.07;;;10.70;99.90;;;;;;5025215;28;20083;-78
2021/10/14 06:26:59;;;;;;;10.88;8.02;;;10.70;99.90;;;;;;5014985;28;20080;-76
2021/10/14 06:29:25;;;;;;;12.77;8.00;;;10.70;99.90;;;;;;5004974;28;20065;-76
2021/10/14 06:31:51;;;;;;;11.75;7.95;;;10.80;99.90;;;;;;5029539;28;20033;-80
2021/10/14 06:34:16;;;;;;;11.00;7.93;;;10.80;99.90;;;;;;5024410;28;20420;-77
2021/10/14 06:36:42;;;;;;;11.80;8.15;;;10.90;99.90;;;;;;5028637;28;20025;-78
2021/10/14 06:39:07;;;;;;;13.38;9.00;;;10.90;99.90;;;;;;5025071;28;20465;-78
2021/10/14 06:41:33;;;;;;;11.75;8.52;;;11.00;99.90;;;;;;5019825;28;20033;-78
2021/10/14 06:43:59;;;;;;;14.07;8.10;;;10.90;99.90;;;;;;5009807;28;20037;-78
2021/10/14 06:46:24;;;;;;;13.05;8.65;;;10.90;99.90;;;;;;5015582;28;20676;-76
2021/10/14 06:48:50;;;;;;;11.80;8.65;;;10.90;99.90;;;;;;5006705;28;20066;-77
2021/10/14 06:51:15;;;;;;;13.95;9.93;;;10.90;99.90;;;;;;5022687;28;20446;-79
2021/10/14 06:53:41;;;;;;;12.70;9.70;;;10.90;99.90;;;;;;5034586;28;20036;-78
2021/10/14 06:56:06;;;;;;;13.93;10.55;;;10.90;99.90;;;;;;5036309;28;20658;-79
2021/10/14 06:58:32;;;;;;;14.82;10.40;;;11.00;99.90;;;;;;5009914;28;20108;-80
2021/10/14 07:00:57;;;;;;;17.95;11.57;;;10.90;99.90;;;;;;5014923;28;20398;-79
2021/10/14 07:03:23;;;;;;;16.70;11.52;;;11.00;99.90;;;;;;5020482;28;20041;-77
2021/10/14 07:05:48;;;;;;;15.23;12.05;;;11.00;99.90;;;;;;5023591;28;20037;-77
2021/10/14 07:08:14;;;;;;;18.23;12.15;;;11.00;99.90;;;;;;5035187;28;20029;-76
2021/10/14 07:10:45;;;;;;;15.82;11.15;;;10.90;99.90;;;;;;5030002;28;20068;-76
2021/10/14 07:13:10;;;;;;;15.70;11.52;;;11.00;99.90;;;;;;5027651;28;20057;-77
2021/10/14 07:15:36;;;;;;;16.05;11.98;;;11.00;99.90;;;;;;5009910;28;20046;-77
2021/10/14 07:18:01;;;;;;;17.10;11.15;;;11.00;99.90;;;;;;5013426;28;20034;-77
2021/10/14 07:20:28;;;;;;;15.55;10.95;;;11.10;99.90;;;;;;5022613;28;20054;-80
2021/10/14 07:22:53;;;;;;;16.85;11.25;;;11.10;99.90;;;;;;5025161;28;20033;-78
2021/10/14 07:25:19;;;;;;;13.68;11.10;;;11.10;99.90;;;;;;5032105;28;20043;-79
2021/10/14 07:27:44;;;;;;;15.30;11.30;;;11.20;99.90;;;;;;5026795;28;20061;-77
2021/10/14 07:30:10;;;;;;;13.98;11.02;;;11.10;99.90;;;;;;5027811;28;20033;-78
2021/10/14 07:32:36;;;;;;;16.02;10.85;;;11.10;99.90;;;;;;5027243;28;20026;-78
2021/10/14 07:35:04;;;;;;;16.98;12.40;;;11.10;99.90;;;;;;5024661;28;20044;-76
2021/10/14 07:37:30;;;;;;;16.70;12.35;;;11.20;99.90;;;;;;5018174;28;20441;-78
2021/10/14 07:39:55;;;;;;;19.60;12.65;;;11.20;99.90;;;;;;5022417;28;20041;-78
2021/10/14 07:42:21;;;;;;;16.08;11.45;;;11.20;99.90;;;;;;5028767;28;20033;-77
2021/10/14 07:44:46;;;;;;;20.33;12.65;;;11.20;99.90;;;;;;5026905;28;20057;-79
2021/10/14 07:47:12;;;;;;;19.05;13.32;;;11.30;99.90;;;;;;5027375;28;20467;-77
2021/10/14 07:49:37;;;;;;;16.25;12.15;;;11.30;99.90;;;;;;5024694;28;20025;-79
2021/10/14 07:52:04;;;;;;;17.55;11.57;;;11.30;99.90;;;;;;5030651;28;20048;-78
2021/10/14 07:54:29;;;;;;;14.30;11.55;;;11.40;99.90;;;;;;5009301;28;20129;-77
2021/10/14 07:56:55;;;;;;;13.80;10.77;;;11.40;99.90;;;;;;5026969;28;20116;-78
2021/10/14 07:59:20;;;;;;;14.80;11.70;;;11.40;99.90;;;;;;5023405;28;20029;-77
2021/10/14 08:01:46;;;;;;;14.07;11.02;;;11.50;99.90;;;;;;5019146;28;20033;-78
2021/10/14 08:04:12;;;;;;;13.23;10.88;;;11.50;99.90;;;;;;5022437;28;20148;-77
2021/10/14 08:06:38;;;;;;;13.55;10.27;;;11.50;99.90;;;;;;5025538;28;20030;-78
2021/10/14 08:09:04;;;;;;;14.32;10.95;;;11.60;99.90;;;;;;5025279;28;20043;-78
2021/10/14 08:11:29;;;;;;;12.90;10.88;;;11.50;99.90;;;;;;5028169;28;20504;-77
2021/10/14 08:13:55;;;;;;;12.85;10.57;;;11.50;99.90;;;;;;5026225;28;20041;-79
2021/10/14 08:16:20;;;;;;;14.20;10.88;;;11.60;99.90;;;;;;5024233;28;20033;-77
2021/10/14 08:18:47;;;;;;;15.23;12.27;;;11.60;99.90;;;;;;5013830;28;20088;-77
2021/10/14 08:21:12;;;;;;;14.77;11.18;;;11.60;99.90;;;;;;5026951;28;20037;-76
2021/10/14 08:23:38;;;;;;;17.90;11.48;;;11.60;99.90;;;;;;5026686;28;20041;-77
2021/10/14 08:26:03;;;;;;;15.68;11.13;;;11.60;99.90;;;;;;5025879;28;20065;-76
2021/10/14 08:28:29;;;;;;;14.70;10.68;;;11.60;99.90;;;;;;5022596;28;20033;-77
2021/10/14 08:30:55;;;;;;;12.18;9.95;;;11.70;99.90;;;;;;5027969;28;20112;-76
2021/10/14 08:33:21;;;;;;;13.40;10.77;;;11.80;99.90;;;;;;5023614;28;20513;-77
2021/10/14 08:35:46;;;;;;;13.40;10.65;;;11.80;99.90;;;;;;5026282;28;20030;-76
2021/10/14 08:38:13;;;;;;;13.30;10.93;;;11.70;99.90;;;;;;5029016;28;20025;-77
2021/10/14 08:40:39;;;;;;;15.38;10.80;;;11.70;99.90;;;;;;5036625;28;20042;-77
2021/10/14 08:43:12;;;;;;;14.35;10.63;;;11.70;99.90;;;;;;5026294;28;20030;-76
2021/10/14 08:45:40;;;;;;;12.35;10.45;;;11.70;99.90;;;;;;5025288;28;20030;-76
2021/10/14 08:48:06;;;;;;;12.98;10.80;;;11.70;99.90;;;;;;5025683;28;20041;-76
2021/10/14 08:50:33;;;;;;;12.50;11.20;;;11.80;99.90;;;;;;5030210;28;20554;-76
2021/10/14 08:52:58;;;;;;;15.00;10.95;;;11.90;99.90;;;;;;5032658;28;20030;-77
2021/10/14 08:55:24;;;;;;;13.85;10.77;;;11.90;99.90;;;;;;5019882;28;20092;-77
2021/10/14 08:57:49;;;;;;;13.25;9.98;;;12.00;99.90;;;;;;5024175;28;20035;-77
2021/10/14 09:00:15;;;;;;;11.45;10.25;;;12.10;99.90;;;;;;5028586;28;20045;-77
2021/10/14 09:02:41;;;;;;;11.75;9.07;;;12.10;99.90;;;;;;5010491;28;20611;-77
2021/10/14 09:05:13;;;;;;;12.35;9.98;;;12.10;99.90;;;;;;5019015;28;20034;-78
2021/10/14 09:07:40;;;;;;;11.07;9.45;;;12.10;99.90;;;;;;5019294;28;20129;-76
2021/10/14 09:10:12;;;;;;;12.15;9.98;;;12.20;99.90;;;;;;5022608;28;20055;-78
2021/10/14 09:12:46;;;;;;;9.25;8.27;;;12.10;99.90;;;;;;5016173;28;20037;-77
2021/10/14 09:15:17;;;;;;;11.18;8.95;;;12.20;99.90;;;;;;5025167;28;20044;-77
2021/10/14 09:17:51;;;;;;;15.25;11.00;;;12.20;99.90;;;;;;5025703;28;20041;-77
2021/10/14 09:20:37;;;;;;;11.68;9.68;;;12.30;99.90;;;;;;5022219;28;20104;-78
2021/10/14 09:23:21;;;;;;;12.20;10.18;;;12.30;99.90;;;;;;5024412;28;20037;-77
2021/10/14 09:25:52;;;;;;;12.77;10.18;;;12.30;99.90;;;;;;5018504;28;20038;-77
2021/10/14 09:28:26;;;;;;;13.02;10.38;;;12.30;99.90;;;;;;5019722;28;20686;-79
2021/10/14 09:30:57;;;;;;;12.07;9.38;;;12.30;99.90;;;;;;5023378;28;20390;-78
2021/10/14 09:33:36;;;;;;;12.48;9.93;;;12.30;99.90;;;;;;5014681;28;20045;-77
2021/10/14 09:36:25;;;;;;;12.50;9.88;;;12.40;99.90;;;;;;5023684;28;20037;-77
2021/10/14 09:39:06;;;;;;;10.18;8.77;;;12.40;99.90;;;;;;5022765;28;20034;-77
2021/10/14 09:41:42;;;;;;;13.93;9.32;;;12.40;99.90;;;;;;5024787;28;20029;-77
2021/10/14 09:44:16;;;;;;;12.63;10.65;;;12.50;99.90;;;;;;5024992;28;20042;-77
2021/10/14 09:46:44;;;;;;;14.40;10.10;;;12.50;99.90;;;;;;5015013;28;20040;-77
2021/10/14 09:49:31;;;;;;;10.70;8.98;;;12.50;99.90;;;;;;5017431;28;20478;-77
2021/10/14 09:52:00;;;;;;;11.95;9.55;;;12.70;99.90;;;;;;5017190;28;20446;-77
2021/10/14 09:54:27;;;;;;;11.07;8.80;;;12.80;99.90;;;;;;5010604;28;20033;-77
2021/10/14 09:56:53;;;;;;;9.13;7.57;;;13.00;99.90;;;;;;5006949;28;20034;-78
2021/10/14 09:59:18;;;;;;;9.25;7.13;;;13.10;99.90;;;;;;5019825;28;20562;-77
2021/10/14 10:01:44;;;;;;;10.75;8.57;;;13.20;99.90;;;;;;5017907;28;20034;-77
2021/10/14 10:04:10;;;;;;;8.18;7.38;;;13.30;99.90;;;;;;5007628;28;20132;-77
2021/10/14 10:06:37;;;;;;;8.38;7.55;;;13.30;99.90;;;;;;5021378;28;20041;-77
2021/10/14 10:09:14;;;;;;;8.23;7.22;;;13.30;99.90;;;;;;5020066;28;20034;-77
2021/10/14 10:11:44;;;;;;;7.38;6.63;;;13.30;99.90;;;;;;5020302;28;20059;-77
2021/10/14 10:14:10;;;;;;;8.18;7.28;;;13.40;99.90;;;;;;5018611;28;20025;-77
2021/10/14 10:16:35;;;;;;;7.82;6.53;;;13.50;99.90;;;;;;5024615;28;20470;-77
2021/10/14 10:19:02;;;;;;;8.05;7.10;;;13.50;99.90;;;;;;5015465;28;20040;-77
2021/10/14 10:21:33;;;;;;;8.50;7.30;;;13.60;99.90;;;;;;5019967;28;20104;-77
2021/10/14 10:24:05;;;;;;;6.45;5.85;;;13.60;99.90;;;;;;5016454;28;20029;-78
2021/10/14 10:26:34;;;;;;;8.13;7.32;;;13.70;99.90;;;;;;5020587;28;20040;-77
2021/10/14 10:29:02;;;;;;;6.85;6.25;;;13.70;99.90;;;;;;5023678;28;20036;-77
2021/10/14 10:31:46;;;;;;;6.57;5.90;;;13.70;99.90;;;;;;5018325;28;20030;-77
2021/10/14 10:34:32;;;;;;;6.47;5.88;;;13.70;99.90;;;;;;5013980;28;20033;-78
2021/10/14 10:37:18;;;;;;;6.25;5.13;;;13.90;99.90;;;;;;5030947;28;20032;-78
2021/10/14 10:39:55;;;;;;;5.13;4.70;;;14.00;99.90;;;;;;5022656;28;20030;-78
2021/10/14 10:42:36;;;;;;;4.85;4.35;;;14.10;99.90;;;;;;5012538;28;20025;-78
2021/10/14 10:45:17;;;;;;;5.28;4.78;;;14.20;99.90;;;;;;5021699;28;20642;-78
2021/10/14 10:48:01;;;;;;;6.47;4.72;;;14.20;99.90;;;;;;5025742;28;20068;-78
2021/10/14 10:50:33;;;;;;;6.60;5.82;;;14.10;99.90;;;;;;5024693;28;20597;-79
2021/10/14 10:53:06;;;;;;;7.40;5.80;;;14.10;99.90;;;;;;5025642;28;20041;-78
2021/10/14 10:55:33;;;;;;;5.13;4.63;;;14.00;99.90;;;;;;5026105;28;20433;-79
2021/10/14 10:58:01;;;;;;;5.68;4.80;;;13.90;99.90;;;;;;5023552;28;20041;-78
2021/10/14 11:00:27;;;;;;;6.10;5.22;;;13.90;99.90;;;;;;5024247;28;20036;-78
2021/10/14 11:03:11;;;;;;;7.97;4.80;;;14.00;99.90;;;;;;5016301;28;20041;-78
2021/10/14 11:05:46;;;;;;;7.20;5.22;;;14.00;99.90;;;;;;5024908;28;20112;-78
2021/10/14 11:08:19;;;;;;;7.13;4.78;;;14.20;99.90;;;;;;5014738;28;20032;-78
2021/10/14 11:10:46;;;;;;;6.53;5.10;;;14.20;99.90;;;;;;5024497;28;20484;-79
2021/10/14 11:13:12;;;;;;;5.72;4.35;;;14.40;99.90;;;;;;5026027;28;20029;-78
2021/10/14 11:15:38;;;;;;;4.47;4.00;;;14.40;99.80;;;;;;5025952;28;20026;-78
2021/10/14 11:18:06;;;;;;;4.30;3.78;;;14.50;99.50;;;;;;5025337;28;20033;-78
2021/10/14 11:20:32;;;;;;;5.05;4.43;;;14.50;99.30;;;;;;5023227;28;20441;-78
2021/10/14 11:23:08;;;;;;;6.35;4.75;;;14.50;99.50;;;;;;5025390;28;20033;-79
2021/10/14 11:25:35;;;;;;;5.20;4.63;;;14.50;99.30;;;;;;5020844;28;20548;-79
2021/10/14 11:28:08;;;;;;;6.30;4.47;;;14.50;99.40;;;;;;5024801;28;20485;-80
2021/10/14 11:30:39;;;;;;;5.32;4.57;;;14.50;99.40;;;;;;5026479;28;20787;-79
2021/10/14 11:33:11;;;;;;;6.53;5.25;;;14.50;99.60;;;;;;5021272;28;20442;-79
2021/10/14 11:35:38;;;;;;;5.47;4.97;;;14.50;99.50;;;;;;5014810;28;20058;-78
2021/10/14 11:38:15;;;;;;;6.68;4.65;;;14.60;99.60;;;;;;5017532;28;20056;-78
2021/10/14 11:40:41;;;;;;;5.20;4.60;;;14.50;99.30;;;;;;5042501;28;20025;-78
2021/10/14 11:43:06;;;;;;;6.75;5.38;;;14.40;99.50;;;;;;5030704;28;20025;-78
2021/10/14 11:45:32;;;;;;;6.05;5.15;;;14.30;99.40;;;;;;5030697;28;20429;-80
2021/10/14 11:47:58;;;;;;;5.85;4.68;;;14.30;99.50;;;;;;5025007;28;20057;-79
2021/10/14 11:50:25;;;;;;;6.63;5.35;;;14.30;99.40;;;;;;5026743;28;20037;-78
2021/10/14 11:53:03;;;;;;;5.90;5.07;;;14.30;99.80;;;;;;5026029;28;20030;-78
2021/10/14 11:55:30;;;;;;;6.10;5.50;;;14.40;99.50;;;;;;5023617;28;20030;-80
2021/10/14 11:57:58;;;;;;;8.75;5.68;;;14.30;99.30;;;;;;5024641;28;20033;-79
2021/10/14 12:00:24;;;;;;;6.20;5.60;;;14.40;99.70;;;;;;5028534;28;20059;-78
2021/10/14 12:02:50;;;;;;;6.28;5.00;;;14.50;99.30;;;;;;5027315;28;20037;-78
2021/10/14 12:05:16;;;;;;;5.80;5.22;;;14.50;99.40;;;;;;5025154;28;20045;-78
2021/10/14 12:07:44;;;;;;;6.25;5.05;;;14.60;99.20;;;;;;5028628;28;20040;-77
2021/10/14 12:10:34;;;;;;;7.97;6.57;;;14.60;98.80;;;;;;5033627;28;20033;-79
2021/10/14 12:13:04;;;;;;;8.85;6.47;;;14.50;99.00;;;;;;5027000;28;20678;-78
2021/10/14 12:15:29;;;;;;;7.63;5.97;;;14.60;99.00;;;;;;5028181;28;20034;-80
2021/10/14 12:17:55;;;;;;;9.82;6.45;;;14.60;98.70;;;;;;5027053;28;20448;-79
2021/10/14 12:20:23;;;;;;;7.13;6.43;;;14.50;99.10;;;;;;5027670;28;20485;-78
2021/10/14 12:22:51;;;;;;;6.80;5.85;;;14.60;98.80;;;;;;5021718;28;20049;-80
2021/10/14 12:25:35;;;;;;;7.40;5.95;;;14.50;98.80;;;;;;5020652;28;20066;-78
2021/10/14 12:28:01;;;;;;;7.38;5.78;;;14.50;99.00;;;;;;5027170;28;20403;-78
2021/10/14 12:30:28;;;;;;;7.57;6.05;;;14.50;99.10;;;;;;5028179;28;20037;-76
2021/10/14 12:32:56;;;;;;;6.63;5.60;;;14.40;99.40;;;;;;5027973;28;20021;-77
2021/10/14 12:35:27;;;;;;;8.23;5.55;;;14.50;99.40;;;;;;5022691;28;20053;-77
2021/10/14 12:38:14;;;;;;;7.72;5.78;;;14.50;99.50;;;;;;5013673;28;20573;-78
2021/10/14 12:40:43;;;;;;;7.28;5.95;;;14.60;99.00;;;;;;5003144;28;20060;-78